Time;durP1;ratioP1;P1;durP2;ratioP2;P2;SDS_P1;SDS_P2;PMS_P1;PMS_P2;Temp;Humidity;BMP_temperature;BMP_pressure;BME280_temperature;BME280_humidity;BME280_pressure;Samples;Min_cycle;Max_cycle;Signal;HPM_P1;HPM_P2
2022/08/05 00:01:26;;;;;;;5.85;1.90;;;20.70;88.40;;;;;;5073731;28;20107;-75
2022/08/05 00:03:51;;;;;;;4.38;1.67;;;20.70;88.60;;;;;;5073955;28;20040;-75
2022/08/05 00:06:17;;;;;;;4.25;1.33;;;20.80;88.70;;;;;;5052183;28;20045;-75
2022/08/05 00:08:43;;;;;;;9.07;1.75;;;20.80;88.80;;;;;;5053590;28;20032;-75
2022/08/05 00:11:12;;;;;;;5.68;1.40;;;20.70;89.00;;;;;;5035606;28;20029;-75
2022/08/05 00:13:39;;;;;;;5.22;1.17;;;20.70;89.00;;;;;;5051930;28;20047;-76
2022/08/05 00:16:11;;;;;;;3.45;1.15;;;20.70;89.20;;;;;;5039098;28;20120;-75
2022/08/05 00:18:37;;;;;;;5.68;1.38;;;20.70;89.30;;;;;;5051856;28;20027;-76
2022/08/05 00:21:03;;;;;;;5.70;1.38;;;20.70;89.40;;;;;;5051820;28;20025;-76
2022/08/05 00:23:28;;;;;;;6.88;1.40;;;20.70;89.50;;;;;;5035316;28;20086;-76
2022/08/05 00:25:54;;;;;;;5.53;1.13;;;20.70;89.70;;;;;;5051995;28;20477;-75
2022/08/05 00:28:20;;;;;;;4.85;1.15;;;20.70;89.70;;;;;;5053474;28;20041;-75
2022/08/05 00:30:45;;;;;;;9.88;1.80;;;20.60;89.50;;;;;;5035521;28;20087;-77
2022/08/05 00:33:11;;;;;;;4.07;1.48;;;20.60;89.80;;;;;;5052275;28;20056;-78
2022/08/05 00:35:37;;;;;;;6.20;1.42;;;20.60;89.60;;;;;;5035612;28;20029;-75
2022/08/05 00:38:03;;;;;;;4.85;1.58;;;20.60;89.70;;;;;;5052429;28;20029;-75
2022/08/05 00:40:28;;;;;;;4.78;1.70;;;20.60;89.90;;;;;;5052880;28;20036;-75
2022/08/05 00:42:56;;;;;;;5.72;1.45;;;20.60;89.80;;;;;;5052452;28;20025;-76
2022/08/05 00:45:22;;;;;;;3.50;1.40;;;20.50;89.80;;;;;;5052057;28;20029;-75
2022/08/05 00:47:47;;;;;;;4.47;1.83;;;20.50;90.00;;;;;;5051864;28;20362;-75
2022/08/05 00:50:13;;;;;;;3.58;1.35;;;20.50;90.00;;;;;;5052341;28;20507;-75
2022/08/05 00:52:39;;;;;;;4.72;1.52;;;20.40;90.00;;;;;;5052099;28;20029;-76
2022/08/05 00:55:04;;;;;;;6.90;1.75;;;20.40;90.00;;;;;;5051659;28;20420;-76
2022/08/05 00:57:30;;;;;;;3.60;1.55;;;20.40;89.80;;;;;;5035447;28;20024;-76
2022/08/05 00:59:56;;;;;;;3.95;1.50;;;20.30;89.80;;;;;;5035640;28;20029;-76
2022/08/05 01:02:21;;;;;;;7.25;1.67;;;20.30;89.90;;;;;;5035430;28;20048;-75
2022/08/05 01:04:47;;;;;;;4.63;1.27;;;20.30;90.00;;;;;;5068500;28;20028;-76
2022/08/05 01:07:13;;;;;;;6.03;1.60;;;20.20;90.00;;;;;;5034880;28;20061;-75
2022/08/05 01:09:38;;;;;;;6.78;1.98;;;20.20;90.00;;;;;;5052959;28;20029;-75
2022/08/05 01:12:13;;;;;;;3.08;1.42;;;20.20;90.10;;;;;;5051509;28;20098;-74
2022/08/05 01:15:04;;;;;;;4.10;1.80;;;20.20;90.20;;;;;;5051672;28;20112;-75
2022/08/05 01:17:44;;;;;;;5.32;1.63;;;20.10;90.50;;;;;;5051351;28;20478;-75
2022/08/05 01:20:28;;;;;;;6.95;2.13;;;20.20;90.30;;;;;;5085284;28;20385;-75
2022/08/05 01:23:01;;;;;;;5.47;1.80;;;20.20;90.30;;;;;;5052132;28;20037;-75
2022/08/05 01:25:54;;;;;;;9.77;2.37;;;20.20;90.30;;;;;;5054765;28;20052;-76
2022/08/05 01:28:26;;;;;;;6.68;1.30;;;20.10;90.30;;;;;;5056443;28;20369;-76
2022/08/05 01:31:14;;;;;;;4.85;1.75;;;20.10;90.40;;;;;;5056339;28;20400;-75
2022/08/05 01:34:03;;;;;;;6.72;1.73;;;20.10;90.40;;;;;;5055056;28;20044;-76
2022/08/05 01:36:35;;;;;;;7.78;1.85;;;20.10;90.50;;;;;;5055277;28;20017;-76
2022/08/05 01:39:01;;;;;;;5.63;1.83;;;20.00;90.50;;;;;;5055102;28;20021;-76
2022/08/05 01:41:31;;;;;;;6.95;1.48;;;20.00;90.70;;;;;;5038319;28;20033;-75
2022/08/05 01:43:57;;;;;;;4.93;1.75;;;20.00;90.70;;;;;;5088571;28;20054;-76
2022/08/05 01:46:25;;;;;;;4.97;2.00;;;20.00;90.70;;;;;;5054793;28;20108;-76
2022/08/05 01:48:52;;;;;;;5.05;2.05;;;20.00;90.70;;;;;;5054667;28;20021;-77
2022/08/05 01:51:19;;;;;;;6.57;2.10;;;20.00;91.00;;;;;;5056007;28;20100;-76
2022/08/05 01:53:48;;;;;;;6.07;1.83;;;20.00;90.80;;;;;;5056233;28;20416;-76
2022/08/05 01:56:16;;;;;;;7.20;1.90;;;20.00;90.90;;;;;;5054721;28;20032;-76
2022/08/05 01:58:43;;;;;;;4.57;2.28;;;20.00;90.90;;;;;;5054675;28;20075;-76
2022/08/05 02:01:12;;;;;;;5.40;1.95;;;19.90;90.90;;;;;;5054433;28;20071;-77
2022/08/05 02:03:43;;;;;;;5.30;1.95;;;19.90;91.00;;;;;;5054889;28;20362;-75
2022/08/05 02:06:10;;;;;;;3.85;1.52;;;19.90;91.10;;;;;;5058339;28;20445;-77
2022/08/05 02:08:36;;;;;;;6.05;2.28;;;19.90;91.00;;;;;;5041078;28;20025;-77
2022/08/05 02:11:07;;;;;;;6.80;1.98;;;19.90;91.10;;;;;;5057727;28;20044;-76
2022/08/05 02:13:48;;;;;;;5.88;2.17;;;19.90;91.10;;;;;;5057551;28;20070;-76
2022/08/05 02:16:23;;;;;;;7.50;2.17;;;19.90;91.20;;;;;;5075385;28;20021;-77
2022/08/05 02:18:55;;;;;;;4.38;1.40;;;19.90;91.20;;;;;;5057327;28;20111;-76
2022/08/05 02:21:52;;;;;;;4.63;1.90;;;19.90;91.20;;;;;;5057826;28;20025;-76
2022/08/05 02:24:21;;;;;;;7.45;2.20;;;19.90;91.20;;;;;;5056077;28;20045;-77
2022/08/05 02:26:51;;;;;;;7.60;2.45;;;19.90;91.20;;;;;;5058112;28;20119;-76
2022/08/05 02:29:22;;;;;;;6.60;1.88;;;19.90;91.30;;;;;;5075253;28;20029;-76
2022/08/05 02:31:50;;;;;;;5.90;1.90;;;19.90;91.30;;;;;;5072406;28;20496;-76
2022/08/05 02:34:16;;;;;;;5.97;1.95;;;19.90;91.30;;;;;;5057718;28;20090;-75
2022/08/05 02:36:50;;;;;;;5.75;2.08;;;19.90;91.30;;;;;;5060741;28;20853;-75
2022/08/05 02:39:18;;;;;;;5.68;1.67;;;19.90;91.30;;;;;;5059078;28;20029;-76
2022/08/05 02:41:47;;;;;;;8.30;2.33;;;19.90;91.60;;;;;;5058249;28;20502;-76
2022/08/05 02:44:13;;;;;;;7.13;1.83;;;19.90;91.30;;;;;;5058261;28;20028;-77
2022/08/05 02:46:41;;;;;;;6.93;2.17;;;19.80;91.30;;;;;;5058190;28;20024;-77
2022/08/05 02:49:09;;;;;;;5.30;1.55;;;19.80;91.40;;;;;;5074401;28;20027;-77
2022/08/05 02:51:36;;;;;;;7.38;2.13;;;19.80;91.40;;;;;;5057669;28;20040;-77
2022/08/05 02:54:04;;;;;;;6.50;1.90;;;19.80;91.50;;;;;;5057846;28;20031;-77
2022/08/05 02:56:31;;;;;;;5.97;2.08;;;19.80;91.50;;;;;;5057974;28;20453;-77
2022/08/05 02:58:58;;;;;;;5.05;1.88;;;19.70;91.50;;;;;;5057434;28;20098;-77
2022/08/05 03:01:25;;;;;;;7.60;2.25;;;19.70;91.60;;;;;;5041122;28;20082;-77
2022/08/05 03:03:59;;;;;;;7.85;2.53;;;19.70;91.60;;;;;;5057779;28;20093;-76
2022/08/05 03:06:26;;;;;;;7.45;2.40;;;19.70;91.70;;;;;;5075147;28;20048;-76
2022/08/05 03:08:52;;;;;;;4.55;1.95;;;19.70;91.70;;;;;;5075078;28;20024;-76
2022/08/05 03:11:25;;;;;;;7.55;2.30;;;19.70;91.80;;;;;;5057088;28;20400;-76
2022/08/05 03:13:51;;;;;;;4.35;1.40;;;19.70;91.90;;;;;;5057208;28;20378;-76
2022/08/05 03:16:18;;;;;;;4.90;1.80;;;19.70;91.90;;;;;;5056567;28;20492;-76
2022/08/05 03:18:43;;;;;;;6.93;2.25;;;19.70;92.10;;;;;;5074669;28;20075;-76
2022/08/05 03:21:09;;;;;;;6.10;2.10;;;19.70;92.30;;;;;;5056706;28;20484;-76
2022/08/05 03:23:38;;;;;;;5.32;1.88;;;19.70;92.10;;;;;;5039798;28;20484;-76
2022/08/05 03:26:04;;;;;;;6.93;1.80;;;19.70;92.20;;;;;;5056270;28;20036;-76
2022/08/05 03:28:30;;;;;;;4.07;1.77;;;19.60;92.10;;;;;;5056493;28;20469;-76
2022/08/05 03:30:58;;;;;;;4.97;2.30;;;19.60;92.20;;;;;;5039304;28;20400;-76
2022/08/05 03:33:25;;;;;;;5.22;1.88;;;19.60;92.20;;;;;;5073965;28;20031;-76
2022/08/05 03:35:50;;;;;;;4.65;1.92;;;19.60;92.30;;;;;;5056345;28;20024;-76
2022/08/05 03:38:16;;;;;;;6.03;2.20;;;19.60;92.30;;;;;;5039306;28;20032;-76
2022/08/05 03:40:45;;;;;;;7.55;1.60;;;19.60;92.40;;;;;;5056500;28;20408;-76
2022/08/05 03:43:11;;;;;;;9.32;2.40;;;19.60;92.40;;;;;;5056235;28;20035;-76
2022/08/05 03:45:37;;;;;;;6.20;2.08;;;19.60;92.40;;;;;;5056401;28;20025;-77
2022/08/05 03:48:03;;;;;;;5.05;2.15;;;19.60;92.50;;;;;;5055281;28;20078;-76
2022/08/05 03:50:42;;;;;;;5.25;2.17;;;19.60;92.40;;;;;;5073743;28;20024;-76
2022/08/05 03:53:12;;;;;;;6.95;2.33;;;19.60;92.50;;;;;;5056568;28;20017;-76
2022/08/05 03:56:04;;;;;;;7.10;2.00;;;19.60;92.50;;;;;;5073687;28;20354;-76
2022/08/05 03:58:33;;;;;;;4.28;2.28;;;19.50;92.50;;;;;;5055759;28;20376;-76
2022/08/05 04:01:01;;;;;;;4.38;2.00;;;19.50;92.50;;;;;;5055875;28;20016;-76
2022/08/05 04:03:28;;;;;;;6.53;2.28;;;19.50;92.60;;;;;;5055967;28;20058;-76
2022/08/05 04:05:56;;;;;;;6.60;2.15;;;19.50;92.60;;;;;;5055688;28;20039;-77
2022/08/05 04:08:21;;;;;;;6.85;2.22;;;19.50;92.70;;;;;;5073676;28;20028;-77
2022/08/05 04:10:49;;;;;;;5.88;2.65;;;19.40;92.70;;;;;;5055988;28;20033;-76
2022/08/05 04:13:17;;;;;;;5.90;2.35;;;19.40;92.80;;;;;;5054710;28;20016;-76
2022/08/05 04:15:45;;;;;;;8.43;2.53;;;19.40;92.90;;;;;;5039177;28;20020;-76
2022/08/05 04:18:10;;;;;;;7.93;3.05;;;19.40;93.00;;;;;;5049766;28;20028;-76
2022/08/05 04:20:36;;;;;;;7.57;2.50;;;19.30;93.00;;;;;;5038909;28;20025;-76
2022/08/05 04:23:02;;;;;;;8.52;2.47;;;19.30;93.00;;;;;;5052219;28;20389;-77
2022/08/05 04:25:27;;;;;;;3.95;1.55;;;19.30;93.10;;;;;;5039260;28;20021;-76
2022/08/05 04:27:53;;;;;;;4.60;1.80;;;19.30;93.10;;;;;;5073228;28;20025;-76
2022/08/05 04:30:19;;;;;;;4.75;2.05;;;19.30;93.20;;;;;;5055437;28;20028;-77
2022/08/05 04:32:44;;;;;;;7.28;2.25;;;19.20;93.20;;;;;;5071900;28;20040;-77
2022/08/05 04:35:10;;;;;;;6.15;2.55;;;19.20;93.30;;;;;;5055381;28;20465;-76
2022/08/05 04:37:35;;;;;;;6.13;2.15;;;19.20;93.30;;;;;;5071877;28;20033;-77
2022/08/05 04:40:01;;;;;;;6.10;2.15;;;19.20;93.40;;;;;;5055364;28;20076;-75
2022/08/05 04:42:27;;;;;;;5.43;2.13;;;19.20;93.40;;;;;;5072226;28;20536;-77
2022/08/05 04:44:52;;;;;;;4.75;2.10;;;19.20;93.50;;;;;;5071903;28;20032;-77
2022/08/05 04:47:18;;;;;;;6.68;2.05;;;19.20;93.50;;;;;;5072097;28;20033;-77
2022/08/05 04:49:44;;;;;;;6.10;1.85;;;19.20;93.60;;;;;;5073222;28;20032;-75
2022/08/05 04:52:09;;;;;;;4.82;2.03;;;19.10;93.60;;;;;;5071736;28;20549;-75
2022/08/05 04:54:35;;;;;;;5.72;2.13;;;19.10;93.60;;;;;;5055424;28;20650;-75
2022/08/05 04:57:00;;;;;;;5.10;1.80;;;19.10;93.70;;;;;;5054905;28;20039;-74
2022/08/05 04:59:26;;;;;;;6.68;1.90;;;19.10;93.70;;;;;;5040391;28;20059;-75
2022/08/05 05:01:52;;;;;;;7.07;1.95;;;19.10;93.70;;;;;;5076999;28;20040;-75
2022/08/05 05:04:17;;;;;;;4.00;1.80;;;19.10;93.80;;;;;;5075666;28;20036;-74
2022/08/05 05:06:43;;;;;;;4.13;2.05;;;19.10;93.80;;;;;;5042230;28;20049;-75
2022/08/05 05:09:10;;;;;;;6.13;2.30;;;19.10;93.90;;;;;;5076901;28;20554;-75
2022/08/05 05:11:36;;;;;;;7.00;1.70;;;19.10;93.90;;;;;;5075537;28;20503;-75
2022/08/05 05:14:02;;;;;;;8.10;2.45;;;19.10;93.90;;;;;;5075425;28;20021;-75
2022/08/05 05:16:28;;;;;;;4.70;1.70;;;19.20;94.00;;;;;;5042061;28;20029;-78
2022/08/05 05:18:54;;;;;;;9.30;2.38;;;19.20;94.00;;;;;;5058927;28;20420;-79
2022/08/05 05:21:19;;;;;;;5.63;1.80;;;19.20;94.10;;;;;;5075645;28;20031;-79
2022/08/05 05:23:45;;;;;;;4.90;1.75;;;19.10;94.10;;;;;;5075478;28;20028;-79
2022/08/05 05:26:10;;;;;;;5.32;1.75;;;19.20;94.10;;;;;;5075249;28;20060;-79
2022/08/05 05:28:36;;;;;;;5.68;2.00;;;19.20;94.20;;;;;;5041835;28;20127;-79
2022/08/05 05:31:02;;;;;;;3.60;1.70;;;19.20;94.20;;;;;;5075210;28;20071;-79
2022/08/05 05:33:27;;;;;;;6.07;2.13;;;19.30;94.20;;;;;;5042249;28;20032;-79
2022/08/05 05:35:53;;;;;;;4.38;1.65;;;19.30;94.20;;;;;;5076528;28;20086;-79
2022/08/05 05:38:18;;;;;;;7.30;1.45;;;19.30;94.20;;;;;;5041498;28;20020;-79
2022/08/05 05:40:44;;;;;;;4.65;1.70;;;19.30;94.20;;;;;;5058342;28;20032;-79
2022/08/05 05:43:10;;;;;;;5.35;1.55;;;19.40;94.20;;;;;;5076024;28;20017;-79
2022/08/05 05:45:35;;;;;;;5.45;1.98;;;19.40;94.20;;;;;;5076128;28;20121;-79
2022/08/05 05:48:04;;;;;;;5.63;1.77;;;19.40;94.20;;;;;;5058379;28;20103;-79
2022/08/05 05:50:30;;;;;;;9.68;1.98;;;19.40;94.10;;;;;;5074519;28;20021;-80
2022/08/05 05:52:56;;;;;;;6.10;2.05;;;19.40;94.10;;;;;;5041533;28;20025;-79
2022/08/05 05:55:21;;;;;;;4.80;1.92;;;19.40;94.00;;;;;;5075033;28;20119;-78
2022/08/05 05:57:47;;;;;;;5.85;2.45;;;19.40;94.00;;;;;;5075891;28;20029;-78
2022/08/05 06:00:18;;;;;;;4.22;1.77;;;19.30;94.00;;;;;;5075851;28;20495;-78
2022/08/05 06:02:45;;;;;;;5.00;1.58;;;19.30;94.00;;;;;;5057673;28;20041;-78
2022/08/05 06:05:12;;;;;;;4.45;1.60;;;19.30;94.00;;;;;;5075580;28;20036;-78
2022/08/05 06:07:38;;;;;;;4.22;1.73;;;19.40;94.10;;;;;;5057769;28;20476;-78
2022/08/05 06:10:05;;;;;;;5.38;1.67;;;19.40;94.00;;;;;;5057148;28;20040;-78
2022/08/05 06:12:31;;;;;;;4.53;1.88;;;19.40;93.90;;;;;;5057541;28;20195;-78
2022/08/05 06:14:56;;;;;;;5.60;1.58;;;19.40;93.90;;;;;;5063970;28;20068;-78
2022/08/05 06:17:22;;;;;;;4.30;1.60;;;19.40;94.00;;;;;;5096552;28;20024;-78
2022/08/05 06:19:48;;;;;;;7.43;1.90;;;19.50;93.90;;;;;;5096178;28;20111;-78
2022/08/05 06:22:23;;;;;;;3.33;1.30;;;19.50;93.90;;;;;;5091250;28;20031;-78
2022/08/05 06:24:48;;;;;;;4.63;1.33;;;19.50;93.90;;;;;;5057521;28;20036;-78
2022/08/05 06:27:15;;;;;;;8.10;1.48;;;19.50;93.80;;;;;;5057511;28;20037;-78
2022/08/05 06:29:40;;;;;;;5.32;1.25;;;19.50;93.70;;;;;;5053896;28;20075;-78
2022/08/05 06:32:06;;;;;;;4.40;1.13;;;19.60;93.70;;;;;;5055304;28;20068;-78
2022/08/05 06:34:32;;;;;;;3.90;1.63;;;19.60;93.60;;;;;;5055166;28;20424;-78
2022/08/05 06:36:58;;;;;;;8.68;1.88;;;19.60;93.50;;;;;;5070569;28;20028;-78
2022/08/05 06:39:24;;;;;;;5.68;1.40;;;19.70;93.40;;;;;;5070383;28;20043;-78
2022/08/05 06:41:49;;;;;;;4.72;1.40;;;19.70;93.40;;;;;;5055544;28;20036;-77
2022/08/05 06:44:15;;;;;;;3.50;1.23;;;19.70;93.30;;;;;;5070377;28;20036;-78
2022/08/05 06:46:41;;;;;;;6.60;1.23;;;19.80;93.30;;;;;;5081572;28;20078;-78
2022/08/05 06:49:06;;;;;;;5.80;1.48;;;19.80;93.30;;;;;;5057454;28;20032;-79
2022/08/05 06:51:32;;;;;;;4.18;1.17;;;19.90;93.20;;;;;;5053245;28;20456;-78
2022/08/05 06:54:02;;;;;;;3.20;0.98;;;19.90;93.10;;;;;;5036803;28;20021;-78
2022/08/05 06:56:30;;;;;;;4.15;1.30;;;19.90;93.00;;;;;;5054748;28;20380;-78
2022/08/05 06:58:55;;;;;;;3.33;1.10;;;20.00;92.90;;;;;;5054684;28;20060;-78
2022/08/05 07:01:21;;;;;;;5.38;1.50;;;20.00;92.80;;;;;;5054597;28;20052;-78
2022/08/05 07:03:47;;;;;;;6.00;1.70;;;20.10;92.70;;;;;;5057591;28;20037;-78
2022/08/05 07:06:12;;;;;;;5.20;1.42;;;20.10;92.50;;;;;;5074205;28;20113;-77
2022/08/05 07:08:38;;;;;;;7.22;1.60;;;20.20;92.40;;;;;;5073996;28;20124;-78
2022/08/05 07:11:04;;;;;;;6.13;1.77;;;20.30;92.30;;;;;;5056327;28;20124;-77
2022/08/05 07:19:03;;;;;;;3.90;1.10;;;20.50;91.70;;;;;;5074527;28;20120;-78
2022/08/05 07:21:29;;;;;;;4.07;1.10;;;20.60;91.60;;;;;;5074147;28;20039;-78
2022/08/05 07:23:55;;;;;;;6.15;1.17;;;20.60;91.40;;;;;;5056530;28;20511;-78
2022/08/05 07:26:21;;;;;;;3.55;1.02;;;20.70;91.20;;;;;;5056461;28;20119;-78
2022/08/05 07:28:47;;;;;;;5.38;1.35;;;20.70;91.00;;;;;;5073060;28;20052;-78
2022/08/05 07:31:12;;;;;;;3.97;1.05;;;20.80;90.80;;;;;;5056080;28;20028;-78
2022/08/05 07:33:38;;;;;;;4.85;0.80;;;20.80;90.60;;;;;;5072764;28;20028;-77
2022/08/05 07:36:05;;;;;;;5.68;0.90;;;20.90;90.60;;;;;;5056031;28;20029;-79
2022/08/05 07:38:31;;;;;;;3.53;1.00;;;20.90;90.40;;;;;;5072337;28;20029;-79
2022/08/05 07:40:56;;;;;;;3.53;0.90;;;20.90;90.30;;;;;;5073903;28;20048;-79
2022/08/05 07:43:22;;;;;;;3.08;0.73;;;21.00;90.20;;;;;;5089802;28;20429;-81
2022/08/05 07:45:47;;;;;;;4.63;0.73;;;21.20;90.10;;;;;;5089554;28;20033;-79
2022/08/05 07:48:13;;;;;;;3.88;0.88;;;21.20;89.60;;;;;;5073899;28;20054;-79
2022/08/05 07:50:39;;;;;;;4.10;0.60;;;21.30;89.20;;;;;;5089114;28;20111;-79
2022/08/05 07:53:04;;;;;;;1.95;0.50;;;21.40;88.90;;;;;;5089492;28;20100;-79
2022/08/05 07:55:30;;;;;;;2.60;0.68;;;21.50;88.70;;;;;;5072240;28;20082;-79
2022/08/05 07:57:57;;;;;;;1.50;0.50;;;21.50;88.00;;;;;;5073796;28;20021;-80
2022/08/05 08:00:24;;;;;;;2.95;0.60;;;21.60;87.20;;;;;;5089367;28;20472;-81
2022/08/05 08:02:49;;;;;;;5.45;0.70;;;21.70;86.30;;;;;;5088987;28;20425;-80
2022/08/05 08:05:15;;;;;;;1.27;0.52;;;21.70;85.30;;;;;;5073503;28;20059;-80
2022/08/05 08:07:41;;;;;;;3.85;0.68;;;21.70;84.70;;;;;;5088891;28;20124;-80
2022/08/05 08:10:07;;;;;;;2.95;0.60;;;21.80;84.10;;;;;;5072050;28;20167;-79
2022/08/05 08:12:32;;;;;;;3.25;0.50;;;21.80;83.50;;;;;;5088973;28;20114;-79
2022/08/05 08:14:58;;;;;;;1.40;0.50;;;21.90;83.10;;;;;;5073906;28;20480;-79
2022/08/05 08:17:24;;;;;;;2.25;0.40;;;21.90;82.40;;;;;;5055434;28;20460;-80
2022/08/05 08:19:49;;;;;;;3.50;0.52;;;22.00;81.70;;;;;;5073171;28;20032;-79
2022/08/05 08:22:15;;;;;;;2.92;0.43;;;22.10;80.80;;;;;;5073375;28;20036;-79
2022/08/05 08:24:41;;;;;;;2.63;0.50;;;22.10;80.70;;;;;;5072885;28;20043;-79
2022/08/05 08:27:07;;;;;;;3.38;0.80;;;22.10;80.40;;;;;;5073429;28;20060;-79
2022/08/05 08:29:32;;;;;;;1.48;0.40;;;22.30;80.40;;;;;;5073642;28;20112;-79
2022/08/05 08:31:58;;;;;;;2.30;0.50;;;22.40;80.30;;;;;;5039032;28;20111;-79
2022/08/05 08:34:25;;;;;;;2.17;0.50;;;22.50;80.10;;;;;;5075315;28;20028;-81
2022/08/05 08:36:52;;;;;;;3.03;0.47;;;22.60;79.40;;;;;;5059672;28;20044;-80
2022/08/05 08:39:18;;;;;;;2.22;0.40;;;22.70;79.00;;;;;;5059302;28;20024;-81
2022/08/05 08:41:48;;;;;;;4.10;0.40;;;22.80;78.50;;;;;;5060059;28;20025;-80
2022/08/05 08:44:16;;;;;;;1.60;0.43;;;22.90;77.70;;;;;;5042547;28;20046;-79
2022/08/05 08:46:43;;;;;;;2.30;0.50;;;22.90;77.20;;;;;;5077157;28;20036;-79
2022/08/05 08:49:13;;;;;;;3.75;0.70;;;23.00;77.00;;;;;;5059248;28;20036;-79
2022/08/05 08:51:40;;;;;;;2.78;0.50;;;23.10;76.40;;;;;;5058984;28;20024;-79
2022/08/05 08:54:06;;;;;;;3.88;0.98;;;23.00;76.10;;;;;;5059826;28;20218;-80
2022/08/05 08:56:32;;;;;;;2.92;0.50;;;22.90;75.20;;;;;;5077130;28;20029;-79
2022/08/05 08:58:59;;;;;;;3.58;0.57;;;22.80;75.40;;;;;;5059124;28;20374;-81
2022/08/05 09:01:25;;;;;;;1.77;0.40;;;22.80;75.40;;;;;;5058964;28;20028;-81
2022/08/05 09:03:53;;;;;;;3.42;0.60;;;22.60;75.00;;;;;;5077024;28;20029;-81
2022/08/05 09:06:19;;;;;;;4.53;0.60;;;22.50;74.70;;;;;;5076735;28;20492;-81
2022/08/05 09:08:45;;;;;;;2.35;0.60;;;22.40;75.00;;;;;;5076825;28;20036;-81
2022/08/05 09:11:12;;;;;;;3.08;0.70;;;22.40;74.50;;;;;;5076440;28;20162;-80
2022/08/05 09:13:38;;;;;;;2.30;0.60;;;22.20;74.60;;;;;;5076396;28;20027;-79
2022/08/05 09:16:07;;;;;;;1.88;0.50;;;22.20;74.90;;;;;;5076379;28;20031;-80
2022/08/05 09:18:35;;;;;;;4.00;0.60;;;22.20;74.50;;;;;;5076633;28;20016;-81
2022/08/05 09:21:01;;;;;;;3.72;0.60;;;22.20;74.20;;;;;;5058552;28;20029;-82
2022/08/05 09:23:26;;;;;;;1.98;0.40;;;22.20;73.90;;;;;;5076548;28;20082;-80
2022/08/05 09:26:09;;;;;;;2.08;0.40;;;22.30;73.90;;;;;;5076687;28;20032;-80
2022/08/05 09:28:36;;;;;;;2.55;0.22;;;22.50;73.20;;;;;;5076428;28;20568;-80
2022/08/05 09:31:08;;;;;;;2.95;0.20;;;22.60;72.10;;;;;;5076289;28;20024;-80
2022/08/05 09:33:48;;;;;;;4.45;0.30;;;22.70;71.20;;;;;;5076289;28;20028;-81
2022/08/05 09:36:14;;;;;;;1.45;0.40;;;22.90;70.60;;;;;;5058469;28;20013;-80
2022/08/05 09:38:57;;;;;;;2.45;0.50;;;23.00;70.50;;;;;;5058186;28;20378;-80
2022/08/05 09:41:23;;;;;;;3.20;0.20;;;23.10;69.20;;;;;;5076384;28;20027;-81
2022/08/05 09:43:49;;;;;;;1.40;0.20;;;23.20;67.90;;;;;;5074801;28;20115;-80
2022/08/05 09:46:25;;;;;;;1.17;0.30;;;23.10;67.80;;;;;;5074639;28;20108;-79
2022/08/05 09:48:52;;;;;;;1.17;0.20;;;23.20;67.90;;;;;;5076490;28;20061;-79
2022/08/05 09:51:31;;;;;;;2.30;0.30;;;23.30;67.60;;;;;;5058286;28;20025;-80
2022/08/05 09:53:57;;;;;;;1.50;0.20;;;23.30;66.20;;;;;;5076066;28;20032;-81
2022/08/05 09:56:26;;;;;;;1.33;0.28;;;23.30;65.50;;;;;;5057877;28;20017;-79
2022/08/05 09:58:57;;;;;;;2.08;0.20;;;23.30;65.20;;;;;;5074593;28;20029;-81
2022/08/05 10:01:23;;;;;;;1.40;0.30;;;23.30;63.40;;;;;;5075850;28;20056;-80
2022/08/05 10:03:56;;;;;;;0.77;0.10;;;23.40;63.40;;;;;;5075642;28;20063;-80
2022/08/05 10:06:21;;;;;;;2.30;0.30;;;23.40;62.90;;;;;;5075804;28;20028;-80
2022/08/05 10:08:47;;;;;;;1.17;0.20;;;23.50;62.10;;;;;;5057783;28;20439;-79
2022/08/05 10:11:15;;;;;;;1.48;0.20;;;23.50;62.60;;;;;;5057987;28;20037;-82
2022/08/05 10:13:42;;;;;;;1.65;0.28;;;23.60;62.20;;;;;;5057624;28;20111;-80
2022/08/05 10:16:35;;;;;;;1.67;0.20;;;23.60;61.70;;;;;;5075448;28;20047;-80
2022/08/05 10:19:01;;;;;;;1.35;0.10;;;23.70;61.00;;;;;;5075569;28;20021;-81
2022/08/05 10:21:27;;;;;;;1.90;0.20;;;23.80;60.00;;;;;;5075501;28;20032;-82
2022/08/05 10:23:54;;;;;;;1.77;0.15;;;23.90;59.50;;;;;;5075468;28;20036;-80
2022/08/05 10:26:20;;;;;;;1.10;0.10;;;24.00;58.90;;;;;;5075513;28;20425;-83
2022/08/05 10:28:46;;;;;;;1.50;0.20;;;24.20;59.20;;;;;;5057277;28;20132;-82
2022/08/05 10:31:14;;;;;;;2.10;0.13;;;24.30;58.80;;;;;;5057202;28;20442;-82
2022/08/05 10:33:40;;;;;;;2.25;0.13;;;24.50;58.40;;;;;;5069638;28;20017;-82
2022/08/05 10:36:06;;;;;;;0.25;0.10;;;24.60;58.10;;;;;;5074309;28;20467;-80
2022/08/05 10:38:34;;;;;;;0.70;0.20;;;24.70;57.70;;;;;;5057286;28;20066;-81
2022/08/05 10:41:05;;;;;;;0.50;0.10;;;24.90;55.80;;;;;;5073708;28;20028;-81
2022/08/05 10:43:51;;;;;;;1.45;0.20;;;25.10;53.80;;;;;;5056643;28;20013;-81
2022/08/05 10:46:18;;;;;;;1.38;0.20;;;25.30;51.70;;;;;;5055257;28;20116;-81
2022/08/05 10:48:46;;;;;;;0.77;0.10;;;25.50;51.50;;;;;;5072613;28;20107;-80
2022/08/05 10:51:17;;;;;;;2.45;0.20;;;25.50;50.70;;;;;;5056814;28;20020;-80
2022/08/05 10:53:44;;;;;;;0.47;0.10;;;25.60;50.60;;;;;;5074825;28;20043;-80
2022/08/05 10:56:15;;;;;;;1.58;0.20;;;25.60;51.30;;;;;;5074481;28;20354;-81
2022/08/05 10:58:53;;;;;;;0.82;0.20;;;25.50;51.70;;;;;;5056778;28;20027;-81
2022/08/05 11:01:30;;;;;;;1.48;0.20;;;25.50;51.60;;;;;;5056772;28;20540;-80
2022/08/05 11:04:22;;;;;;;3.20;0.10;;;25.60;51.70;;;;;;5056851;28;20032;-80
2022/08/05 11:06:59;;;;;;;1.80;0.20;;;25.70;51.10;;;;;;5052965;28;20056;-82
2022/08/05 11:09:27;;;;;;;0.65;0.10;;;25.90;51.30;;;;;;5074731;28;20035;-81
2022/08/05 11:11:54;;;;;;;0.70;0.17;;;26.00;51.20;;;;;;5056892;28;20051;-80
2022/08/05 11:14:28;;;;;;;0.52;0.10;;;26.20;51.40;;;;;;5056636;28;20023;-79
2022/08/05 11:17:32;;;;;;;1.45;0.20;;;26.20;51.20;;;;;;5056304;28;20386;-82
2022/08/05 11:19:58;;;;;;;0.77;0.10;;;26.40;50.40;;;;;;5074210;28;20042;-82
2022/08/05 11:22:41;;;;;;;2.08;0.20;;;26.50;50.40;;;;;;5074122;28;20025;-81
2022/08/05 11:25:58;;;;;;;1.02;0.10;;;26.40;49.30;;;;;;5074504;28;20089;-82
2022/08/05 11:28:25;;;;;;;0.80;0.20;;;26.40;48.70;;;;;;4993115;28;20050;-80
2022/08/05 11:30:57;;;;;;;2.40;0.30;;;26.40;49.10;;;;;;4993075;28;20136;-80
2022/08/05 11:33:35;;;;;;;3.08;0.10;;;26.30;48.90;;;;;;5041972;28;20101;-80
2022/08/05 11:36:05;;;;;;;1.13;0.20;;;26.30;48.80;;;;;;5074388;28;20090;-82
2022/08/05 11:38:43;;;;;;;2.05;0.25;;;26.30;48.40;;;;;;5074295;28;20024;-75
2022/08/05 11:41:30;;;;;;;0.88;0.10;;;26.20;47.50;;;;;;5074399;28;20029;-75
2022/08/05 11:43:56;;;;;;;2.10;0.20;;;26.20;47.10;;;;;;5056385;28;20484;-75
2022/08/05 11:46:35;;;;;;;0.73;0.10;;;26.20;47.10;;;;;;5056517;28;20369;-76
2022/08/05 11:49:02;;;;;;;0.63;0.08;;;26.10;46.90;;;;;;5040717;28;20477;-76
2022/08/05 11:51:28;;;;;;;1.70;0.20;;;26.10;46.90;;;;;;5039968;28;20020;-75
2022/08/05 11:53:55;;;;;;;0.82;0.10;;;26.10;46.80;;;;;;5074554;28;20124;-75
2022/08/05 11:56:21;;;;;;;1.73;0.10;;;26.10;46.80;;;;;;5039993;28;20460;-77
2022/08/05 11:58:48;;;;;;;0.90;0.10;;;26.00;46.80;;;;;;5039636;28;20024;-76
2022/08/05 12:01:20;;;;;;;2.35;0.40;;;26.10;46.70;;;;;;5073825;28;20032;-77
2022/08/05 12:03:52;;;;;;;0.93;0.10;;;26.10;46.40;;;;;;5052717;28;20367;-75
2022/08/05 12:06:20;;;;;;;0.85;0.13;;;26.20;46.50;;;;;;5073384;28;20029;-76
2022/08/05 12:08:48;;;;;;;1.48;0.10;;;26.20;46.50;;;;;;5072719;28;20024;-75
2022/08/05 12:11:19;;;;;;;2.08;0.10;;;26.20;46.10;;;;;;5073550;28;20032;-74
2022/08/05 12:13:53;;;;;;;0.50;0.00;;;26.20;45.50;;;;;;5054715;28;20028;-77
2022/08/05 12:16:20;;;;;;;0.68;0.10;;;26.20;44.90;;;;;;5073644;28;20028;-75
2022/08/05 12:18:46;;;;;;;0.90;0.15;;;26.10;44.60;;;;;;5073757;28;20031;-77
2022/08/05 12:21:14;;;;;;;2.60;0.20;;;26.00;44.70;;;;;;5073551;28;20099;-76
2022/08/05 12:24:10;;;;;;;0.15;0.00;;;25.90;44.00;;;;;;5073597;28;20380;-75
2022/08/05 12:26:36;;;;;;;0.82;0.10;;;25.90;43.70;;;;;;5072619;28;20025;-75
2022/08/05 12:29:04;;;;;;;1.45;0.20;;;25.80;43.90;;;;;;5055434;28;20028;-75
2022/08/05 12:31:32;;;;;;;0.35;0.10;;;25.80;44.20;;;;;;5071688;28;20043;-74
2022/08/05 12:33:59;;;;;;;1.33;0.10;;;25.90;44.30;;;;;;5071855;28;20032;-76
2022/08/05 12:36:24;;;;;;;1.40;0.20;;;25.90;44.20;;;;;;5071629;28;20495;-75
2022/08/05 12:38:50;;;;;;;0.88;0.10;;;25.90;44.20;;;;;;5072620;28;20029;-76
2022/08/05 12:41:16;;;;;;;1.25;0.20;;;26.00;44.90;;;;;;5055154;28;20047;-76
2022/08/05 12:44:12;;;;;;;0.63;0.08;;;26.10;44.30;;;;;;5088604;28;20029;-75
2022/08/05 12:46:39;;;;;;;1.15;0.10;;;26.30;44.40;;;;;;5072243;28;20397;-75
2022/08/05 12:49:14;;;;;;;1.80;0.15;;;26.60;44.80;;;;;;5054918;28;20028;-75
2022/08/05 12:51:51;;;;;;;0.50;0.08;;;26.90;44.40;;;;;;5071548;28;20034;-75
2022/08/05 12:54:26;;;;;;;1.38;0.20;;;27.00;44.10;;;;;;5072600;28;20554;-74
2022/08/05 12:57:05;;;;;;;0.80;0.10;;;27.10;43.90;;;;;;5054830;28;20020;-76
2022/08/05 12:59:32;;;;;;;1.17;0.13;;;27.10;43.60;;;;;;5072593;28;20024;-75
2022/08/05 13:02:01;;;;;;;2.05;0.15;;;27.10;43.80;;;;;;5054754;28;20388;-76